createdAt,value
2022-12-15T00:00:54.232Z,998.95
2022-12-15T00:01:54.208Z,998.91
2022-12-15T00:02:54.277Z,998.97
2022-12-15T00:03:54.176Z,999.01
2022-12-15T00:04:54.138Z,998.98
2022-12-15T00:05:54.132Z,999.02
2022-12-15T00:06:54.173Z,999.00
2022-12-15T00:07:54.099Z,999.03
2022-12-15T00:08:54.087Z,999.02
2022-12-15T00:09:54.082Z,999.04
2022-12-15T00:10:54.079Z,999.03
2022-12-15T00:11:54.054Z,999.06
2022-12-15T00:12:54.034Z,999.09
2022-12-15T00:13:54.029Z,999.07
2022-12-15T00:14:54.014Z,999.03
2022-12-15T00:15:54.213Z,999.04
2022-12-15T00:16:53.982Z,999.02
2022-12-15T00:17:53.975Z,999.05
2022-12-15T00:18:53.951Z,999.06
2022-12-15T00:19:53.945Z,999.08
2022-12-15T00:20:53.930Z,999.14
2022-12-15T00:21:53.930Z,999.19
2022-12-15T00:22:53.901Z,999.25
2022-12-15T00:23:53.895Z,999.25
2022-12-15T00:24:53.880Z,999.23
2022-12-15T00:25:53.860Z,999.26
2022-12-15T00:26:53.852Z,999.24
2022-12-15T00:27:53.833Z,999.27
2022-12-15T00:28:53.817Z,999.29
2022-12-15T00:29:53.811Z,999.25
2022-12-15T00:30:58.860Z,999.22
2022-12-15T00:31:53.875Z,999.24
2022-12-15T00:32:53.770Z,999.24
2022-12-15T00:33:53.765Z,999.17
2022-12-15T00:34:53.753Z,999.21
2022-12-15T00:35:53.732Z,999.20
2022-12-15T00:36:53.710Z,999.18
2022-12-15T00:37:53.734Z,999.22
2022-12-15T00:38:53.698Z,999.15
2022-12-15T00:39:53.680Z,999.17
2022-12-15T00:40:53.664Z,999.22
2022-12-15T00:41:53.660Z,999.23
2022-12-15T00:42:53.640Z,999.18
2022-12-15T00:43:53.633Z,999.24
2022-12-15T00:44:53.613Z,999.20
2022-12-15T00:45:53.602Z,999.19
2022-12-15T00:46:53.642Z,999.18
2022-12-15T00:47:53.574Z,999.24
2022-12-15T00:48:53.551Z,999.25
2022-12-15T00:49:53.567Z,999.23
2022-12-15T00:50:53.541Z,999.22
2022-12-15T00:51:53.524Z,999.27
2022-12-15T00:52:53.496Z,999.27
2022-12-15T00:53:53.486Z,999.26
2022-12-15T00:54:53.477Z,999.23
2022-12-15T00:55:53.468Z,999.17
2022-12-15T00:56:53.459Z,999.18
2022-12-15T00:57:53.434Z,999.19
2022-12-15T00:58:53.425Z,999.22
2022-12-15T00:59:53.421Z,999.22
2022-12-15T01:00:53.406Z,999.24
2022-12-15T01:01:53.498Z,999.27
2022-12-15T01:02:53.589Z,999.27
2022-12-15T01:03:53.463Z,999.27
2022-12-15T01:04:53.348Z,999.25
2022-12-15T01:05:53.334Z,999.28
2022-12-15T01:06:53.326Z,999.36
2022-12-15T01:07:53.317Z,999.38
2022-12-15T01:08:53.305Z,999.41
2022-12-15T01:09:53.278Z,999.41
2022-12-15T01:10:53.278Z,999.44
2022-12-15T01:11:53.261Z,999.42
2022-12-15T01:12:53.242Z,999.46
2022-12-15T01:13:53.225Z,999.39
2022-12-15T01:14:53.208Z,999.43
2022-12-15T01:15:53.277Z,999.41
2022-12-15T01:16:53.185Z,999.38
2022-12-15T01:17:53.176Z,999.41
2022-12-15T01:18:53.158Z,999.41
2022-12-15T01:19:53.177Z,999.40
2022-12-15T01:20:53.135Z,999.39
2022-12-15T01:21:53.127Z,999.44
2022-12-15T01:22:53.121Z,999.43
2022-12-15T01:23:53.098Z,999.43
2022-12-15T01:24:53.098Z,999.40
2022-12-15T01:25:53.059Z,999.39
2022-12-15T01:26:53.053Z,999.46
2022-12-15T01:27:53.045Z,999.45
2022-12-15T01:28:53.011Z,999.46
2022-12-15T01:29:53.003Z,999.46
2022-12-15T01:30:53.007Z,999.48
2022-12-15T01:31:53.080Z,999.48
2022-12-15T01:32:52.964Z,999.38
2022-12-15T01:33:52.950Z,999.39
2022-12-15T01:34:52.937Z,999.39
2022-12-15T01:35:52.927Z,999.35
2022-12-15T01:36:52.921Z,999.36
2022-12-15T01:37:52.909Z,999.39
2022-12-15T01:38:54.500Z,999.34
2022-12-15T01:39:52.949Z,999.31
2022-12-15T01:40:52.859Z,999.32
2022-12-15T01:41:52.873Z,999.31
2022-12-15T01:42:52.831Z,999.34
2022-12-15T01:43:52.828Z,999.33
2022-12-15T01:44:52.804Z,999.32
2022-12-15T01:45:52.793Z,999.37
2022-12-15T01:46:52.877Z,999.32
2022-12-15T01:47:52.775Z,999.35
2022-12-15T01:48:52.803Z,999.35
2022-12-15T01:49:52.742Z,999.37
2022-12-15T01:50:52.738Z,999.33
2022-12-15T01:51:52.725Z,999.36
2022-12-15T01:52:52.714Z,999.32
2022-12-15T01:53:52.689Z,999.34
2022-12-15T01:54:52.686Z,999.35
2022-12-15T01:55:52.655Z,999.36
2022-12-15T01:56:52.642Z,999.35
2022-12-15T01:57:52.648Z,999.34
2022-12-15T01:58:52.619Z,999.29
2022-12-15T01:59:52.610Z,999.34
2022-12-15T02:00:52.648Z,999.33
2022-12-15T02:01:52.691Z,999.33
2022-12-15T02:02:52.667Z,999.29
2022-12-15T02:03:52.581Z,999.39
2022-12-15T02:04:52.535Z,999.43
2022-12-15T02:05:52.535Z,999.43
2022-12-15T02:06:52.522Z,999.44
2022-12-15T02:07:52.512Z,999.40
2022-12-15T02:08:52.491Z,999.35
2022-12-15T02:09:52.473Z,999.42
2022-12-15T02:10:52.450Z,999.36
2022-12-15T02:11:52.467Z,999.39
2022-12-15T02:12:52.461Z,999.36
2022-12-15T02:13:52.452Z,999.39
2022-12-15T02:14:52.417Z,999.42
2022-12-15T02:15:52.487Z,999.44
2022-12-15T02:16:52.377Z,999.45
2022-12-15T02:17:52.368Z,999.45
2022-12-15T02:18:52.377Z,999.50
2022-12-15T02:19:52.348Z,999.47
2022-12-15T02:20:52.317Z,999.52
2022-12-15T02:21:52.374Z,999.51
2022-12-15T02:22:52.294Z,999.49
2022-12-15T02:23:52.329Z,999.54
2022-12-15T02:24:52.265Z,999.60
2022-12-15T02:25:52.263Z,999.58
2022-12-15T02:26:52.245Z,999.58
2022-12-15T02:27:52.233Z,999.65
2022-12-15T02:28:52.212Z,999.65
2022-12-15T02:29:52.207Z,999.64
2022-12-15T02:30:52.188Z,999.64
2022-12-15T02:31:52.321Z,999.70
2022-12-15T02:32:52.171Z,999.68
2022-12-15T02:33:52.144Z,999.68
2022-12-15T02:34:52.161Z,999.71
2022-12-15T02:35:52.114Z,999.68
2022-12-15T02:36:52.101Z,999.67
2022-12-15T02:37:52.096Z,999.72
2022-12-15T02:38:52.077Z,999.69
2022-12-15T02:39:52.103Z,999.76
2022-12-15T02:40:52.055Z,999.79
2022-12-15T02:41:52.046Z,999.85
2022-12-15T02:42:52.039Z,999.84
2022-12-15T02:43:52.016Z,999.86
2022-12-15T02:44:51.997Z,999.86
2022-12-15T02:45:52.034Z,999.84
2022-12-15T02:46:51.968Z,999.90
2022-12-15T02:47:51.974Z,999.88
2022-12-15T02:48:51.964Z,999.89
2022-12-15T02:49:51.933Z,999.92
2022-12-15T02:50:51.917Z,999.96
2022-12-15T02:51:51.892Z,999.99
2022-12-15T02:52:51.896Z,1000.02
2022-12-15T02:53:51.871Z,1000.04
2022-12-15T02:54:51.884Z,1000.04
2022-12-15T02:55:51.845Z,1000.06
2022-12-15T02:56:51.829Z,1000.11
2022-12-15T02:57:51.832Z,1000.12
2022-12-15T02:58:51.815Z,1000.11
2022-12-15T02:59:51.800Z,1000.12
2022-12-15T03:00:51.830Z,1000.11
2022-12-15T03:01:52.083Z,1000.10
2022-12-15T03:02:51.907Z,1000.08
2022-12-15T03:03:51.754Z,1000.12
2022-12-15T03:04:51.727Z,1000.09
2022-12-15T03:05:51.715Z,1000.13
2022-12-15T03:06:55.957Z,1000.15
2022-12-15T03:07:51.685Z,1000.12
2022-12-15T03:08:51.676Z,1000.10
2022-12-15T03:09:51.696Z,1000.10
2022-12-15T03:10:51.649Z,1000.07
2022-12-15T03:11:51.646Z,1000.07
2022-12-15T03:12:51.619Z,1000.11
2022-12-15T03:13:51.596Z,1000.12
2022-12-15T03:14:51.581Z,1000.11
2022-12-15T03:15:51.592Z,1000.15
2022-12-15T03:16:51.590Z,1000.16
2022-12-15T03:17:51.549Z,1000.18
2022-12-15T03:18:51.534Z,1000.20
2022-12-15T03:19:51.517Z,1000.17
2022-12-15T03:20:51.515Z,1000.21
2022-12-15T03:21:51.493Z,1000.22
2022-12-15T03:22:51.479Z,1000.19
2022-12-15T03:23:51.476Z,1000.23
2022-12-15T03:24:51.448Z,1000.27
2022-12-15T03:25:51.436Z,1000.29
2022-12-15T03:26:51.417Z,1000.29
2022-12-15T03:27:51.419Z,1000.30
2022-12-15T03:28:51.390Z,1000.30
2022-12-15T03:29:51.376Z,1000.30
2022-12-15T03:30:51.378Z,1000.27
2022-12-15T03:31:51.418Z,1000.28
2022-12-15T03:32:51.356Z,1000.23
2022-12-15T03:33:51.343Z,1000.28
2022-12-15T03:34:51.320Z,1000.26
2022-12-15T03:35:51.304Z,1000.26
2022-12-15T03:36:51.286Z,1000.29
2022-12-15T03:37:51.289Z,1000.23
2022-12-15T03:38:51.260Z,1000.24
2022-12-15T03:39:51.240Z,1000.17
2022-12-15T03:40:51.234Z,1000.19
2022-12-15T03:41:51.217Z,1000.21
2022-12-15T03:42:51.214Z,1000.22
2022-12-15T03:43:51.218Z,1000.22
2022-12-15T03:44:51.182Z,1000.23
2022-12-15T03:45:51.201Z,1000.25
2022-12-15T03:46:51.144Z,1000.22
2022-12-15T03:47:51.155Z,1000.24
2022-12-15T03:48:51.163Z,1000.23
2022-12-15T03:49:51.107Z,1000.25
2022-12-15T03:50:51.101Z,1000.24
2022-12-15T03:51:51.074Z,1000.27
2022-12-15T03:52:51.077Z,1000.23
2022-12-15T03:53:51.070Z,1000.23
2022-12-15T03:54:51.071Z,1000.26
2022-12-15T03:55:51.017Z,1000.28
2022-12-15T03:56:51.014Z,1000.27
2022-12-15T03:57:51.009Z,1000.31
2022-12-15T03:58:50.984Z,1000.32
2022-12-15T03:59:50.974Z,1000.36
2022-12-15T04:00:50.961Z,1000.39
2022-12-15T04:01:51.092Z,1000.37
2022-12-15T04:02:51.127Z,1000.40
2022-12-15T04:03:54.311Z,1000.42
2022-12-15T04:04:50.902Z,1000.42
2022-12-15T04:05:50.888Z,1000.42
2022-12-15T04:06:50.890Z,1000.47
2022-12-15T04:07:50.859Z,1000.44
2022-12-15T04:08:50.865Z,1000.43
2022-12-15T04:09:50.826Z,1000.41
2022-12-15T04:10:50.813Z,1000.46
2022-12-15T04:11:50.810Z,1000.45
2022-12-15T04:12:50.807Z,1000.43
2022-12-15T04:13:50.787Z,1000.49
2022-12-15T04:14:50.776Z,1000.44
2022-12-15T04:15:50.756Z,1000.46
2022-12-15T04:16:50.784Z,1000.49
2022-12-15T04:17:50.722Z,1000.47
2022-12-15T04:18:50.707Z,1000.47
2022-12-15T04:19:50.692Z,1000.44
2022-12-15T04:20:50.676Z,1000.47
2022-12-15T04:21:50.664Z,1000.44
2022-12-15T04:22:50.655Z,1000.47
2022-12-15T04:23:50.647Z,1000.51
2022-12-15T04:24:50.634Z,1000.49
2022-12-15T04:25:50.621Z,1000.53
2022-12-15T04:26:50.633Z,1000.54
2022-12-15T04:27:50.584Z,1000.56
2022-12-15T04:28:50.620Z,1000.63
2022-12-15T04:29:50.558Z,1000.59
2022-12-15T04:30:50.586Z,1000.65
2022-12-15T04:31:50.538Z,1000.66
2022-12-15T04:32:50.550Z,1000.63
2022-12-15T04:33:50.495Z,1000.65
2022-12-15T04:34:50.488Z,1000.66
2022-12-15T04:35:50.512Z,1000.69
2022-12-15T04:36:50.476Z,1000.65
2022-12-15T04:37:50.444Z,1000.71
2022-12-15T04:38:50.853Z,1000.67
2022-12-15T04:39:50.439Z,1000.64
2022-12-15T04:40:50.406Z,1000.66
2022-12-15T04:41:50.393Z,1000.74
2022-12-15T04:42:50.416Z,1000.69
2022-12-15T04:43:50.362Z,1000.71
2022-12-15T04:44:50.445Z,1000.73
2022-12-15T04:45:50.382Z,1000.73
2022-12-15T04:46:50.317Z,1000.76
2022-12-15T04:47:50.314Z,1000.79
2022-12-15T04:48:50.298Z,1000.83
2022-12-15T04:49:50.272Z,1000.83
2022-12-15T04:50:50.265Z,1000.86
2022-12-15T04:51:50.246Z,1000.89
2022-12-15T04:52:50.272Z,1000.92
2022-12-15T04:53:50.228Z,1000.98
2022-12-15T04:54:50.244Z,1001.03
2022-12-15T04:55:50.202Z,1000.97
2022-12-15T04:56:50.195Z,1001.04
2022-12-15T04:57:50.167Z,1001.01
2022-12-15T04:58:50.150Z,1001.05
2022-12-15T04:59:50.128Z,1001.10
2022-12-15T05:00:50.129Z,1001.09
2022-12-15T05:01:50.238Z,1001.02
2022-12-15T05:02:50.130Z,1001.10
2022-12-15T05:03:50.092Z,1001.19
2022-12-15T05:04:50.133Z,1001.18
2022-12-15T05:05:50.056Z,1001.21
2022-12-15T05:06:50.042Z,1001.23
2022-12-15T05:07:50.033Z,1001.24
2022-12-15T05:08:50.303Z,1001.26
2022-12-15T05:09:49.993Z,1001.26
2022-12-15T05:10:50.000Z,1001.23
2022-12-15T05:11:49.973Z,1001.28
2022-12-15T05:12:49.963Z,1001.30
2022-12-15T05:13:49.932Z,1001.31
2022-12-15T05:14:49.917Z,1001.25
2022-12-15T05:15:49.969Z,1001.27
2022-12-15T05:16:49.915Z,1001.23
2022-12-15T05:17:49.877Z,1001.17
2022-12-15T05:18:49.862Z,1001.16
2022-12-15T05:19:49.855Z,1001.18
2022-12-15T05:20:50.149Z,1001.11
2022-12-15T05:21:49.853Z,1001.12
2022-12-15T05:22:49.825Z,1001.09
2022-12-15T05:23:49.787Z,1001.12
2022-12-15T05:24:49.779Z,1001.11
2022-12-15T05:25:49.782Z,1001.15
2022-12-15T05:26:52.964Z,1001.12
2022-12-15T05:27:49.758Z,1001.09
2022-12-15T05:28:49.715Z,1001.10
2022-12-15T05:29:49.700Z,1001.16
2022-12-15T05:30:49.766Z,1001.09
2022-12-15T05:31:49.672Z,1001.13
2022-12-15T05:32:49.905Z,1001.15
2022-12-15T05:33:49.643Z,1001.19
2022-12-15T05:34:49.645Z,1001.25
2022-12-15T05:35:49.712Z,1001.26
2022-12-15T05:36:49.610Z,1001.37
2022-12-15T05:37:49.593Z,1001.42
2022-12-15T05:38:50.382Z,1001.41
2022-12-15T05:39:49.575Z,1001.43
2022-12-15T05:40:49.563Z,1001.45
2022-12-15T05:41:49.531Z,1001.45
2022-12-15T05:42:50.052Z,1001.45
2022-12-15T05:43:49.510Z,1001.49
2022-12-15T05:44:49.862Z,1001.50
2022-12-15T05:45:49.574Z,1001.45
2022-12-15T05:46:49.532Z,1001.48
2022-12-15T05:47:49.460Z,1001.43
2022-12-15T05:48:49.450Z,1001.39
2022-12-15T05:49:49.445Z,1001.45
2022-12-15T05:50:49.678Z,1001.48
2022-12-15T05:51:49.390Z,1001.43
2022-12-15T05:52:49.745Z,1001.47
2022-12-15T05:53:49.357Z,1001.48
2022-12-15T05:54:49.388Z,1001.50
2022-12-15T05:55:49.336Z,1001.55
2022-12-15T05:56:50.071Z,1001.55
2022-12-15T05:57:49.313Z,1001.59
2022-12-15T05:58:49.291Z,1001.63
2022-12-15T05:59:49.283Z,1001.67
2022-12-15T06:00:49.326Z,1001.69
2022-12-15T06:01:49.327Z,1001.71
2022-12-15T06:02:49.910Z,1001.70
2022-12-15T06:03:49.224Z,1001.73
2022-12-15T06:04:49.271Z,1001.70
2022-12-15T06:05:54.651Z,1001.73
2022-12-15T06:06:49.186Z,1001.76
2022-12-15T06:07:49.168Z,1001.73
2022-12-15T06:08:49.953Z,1001.72
2022-12-15T06:09:49.134Z,1001.77
2022-12-15T06:10:49.160Z,1001.77
2022-12-15T06:11:49.104Z,1001.73
2022-12-15T06:12:49.091Z,1001.66
2022-12-15T06:13:49.087Z,1001.69
2022-12-15T06:14:49.982Z,1001.81
2022-12-15T06:15:49.085Z,1001.97
2022-12-15T06:16:50.776Z,1002.14
2022-12-15T06:17:49.758Z,1002.14
2022-12-15T06:18:49.912Z,1002.07
2022-12-15T06:19:49.005Z,1002.07
2022-12-15T06:20:49.666Z,1002.05
2022-12-15T06:21:48.959Z,1002.00
2022-12-15T06:22:50.168Z,1002.02
2022-12-15T06:23:48.942Z,1001.96
2022-12-15T06:24:48.948Z,1001.91
2022-12-15T06:25:48.904Z,1001.91
2022-12-15T06:26:49.735Z,1001.89
2022-12-15T06:27:48.888Z,1001.90
2022-12-15T06:28:48.866Z,1001.97
2022-12-15T06:29:48.859Z,1001.95
2022-12-15T06:30:48.860Z,1002.02
2022-12-15T06:31:48.885Z,1001.99
2022-12-15T06:32:49.901Z,1001.98
2022-12-15T06:33:48.799Z,1002.00
2022-12-15T06:34:48.803Z,1001.99
2022-12-15T06:35:48.756Z,1002.00
2022-12-15T06:36:48.755Z,1001.97
2022-12-15T06:37:48.730Z,1002.01
2022-12-15T06:38:49.838Z,1002.00
2022-12-15T06:39:48.762Z,1001.97
2022-12-15T06:40:48.698Z,1001.95
2022-12-15T06:41:48.676Z,1001.94
2022-12-15T06:42:48.662Z,1001.94
2022-12-15T06:43:48.668Z,1001.94
2022-12-15T06:44:48.659Z,1001.94
2022-12-15T06:45:49.928Z,1001.94
2022-12-15T06:46:48.697Z,1001.92
2022-12-15T06:47:48.600Z,1001.98
2022-12-15T06:48:48.608Z,1001.96
2022-12-15T06:49:48.646Z,1002.01
2022-12-15T06:50:50.359Z,1001.99
2022-12-15T06:51:48.540Z,1001.96
2022-12-15T06:52:48.519Z,1001.97
2022-12-15T06:53:48.542Z,1001.99
2022-12-15T06:54:48.513Z,1001.98
2022-12-15T06:55:48.527Z,1001.97
2022-12-15T06:56:49.819Z,1002.03
2022-12-15T06:57:48.472Z,1002.07
2022-12-15T06:58:48.446Z,1002.13
2022-12-15T06:59:48.451Z,1002.18
2022-12-15T07:00:48.408Z,1002.22
2022-12-15T07:01:48.604Z,1002.22
2022-12-15T07:02:50.323Z,1002.28
2022-12-15T07:03:48.694Z,1002.28
2022-12-15T07:04:48.346Z,1002.28
2022-12-15T07:05:48.336Z,1002.26
2022-12-15T07:06:48.337Z,1002.29
2022-12-15T07:07:48.311Z,1002.32
2022-12-15T07:08:48.346Z,1002.27
2022-12-15T07:09:48.278Z,1002.31
2022-12-15T07:10:48.258Z,1002.27
2022-12-15T07:11:48.260Z,1002.31
2022-12-15T07:12:48.235Z,1002.35
2022-12-15T07:13:48.230Z,1002.38
2022-12-15T07:14:53.201Z,1002.43
2022-12-15T07:15:48.210Z,1002.55
2022-12-15T07:16:48.289Z,1002.59
2022-12-15T07:17:48.177Z,1002.67
2022-12-15T07:18:48.158Z,1002.70
2022-12-15T07:19:48.136Z,1002.74
2022-12-15T07:20:49.863Z,1002.77
2022-12-15T07:21:48.110Z,1002.79
2022-12-15T07:22:48.090Z,1002.76
2022-12-15T07:23:57.069Z,1002.74
2022-12-15T07:24:48.073Z,1002.76
2022-12-15T07:25:48.048Z,1002.75
2022-12-15T07:26:48.921Z,1002.78
2022-12-15T07:27:48.031Z,1002.75
2022-12-15T07:28:47.994Z,1002.76
2022-12-15T07:29:47.996Z,1002.78
2022-12-15T07:30:47.976Z,1002.73
2022-12-15T07:31:48.083Z,1002.80
2022-12-15T07:32:50.028Z,1002.78
2022-12-15T07:33:47.935Z,1002.82
2022-12-15T07:34:47.913Z,1002.81
2022-12-15T07:35:47.908Z,1002.82
2022-12-15T07:36:52.114Z,1002.80
2022-12-15T07:37:47.894Z,1002.81
2022-12-15T07:38:50.732Z,1002.87
2022-12-15T07:39:47.847Z,1002.91
2022-12-15T07:40:47.827Z,1002.93
2022-12-15T07:41:47.839Z,1002.94
2022-12-15T07:42:47.804Z,1002.97
2022-12-15T07:43:48.172Z,1002.92
2022-12-15T07:44:49.979Z,1002.89
2022-12-15T07:45:51.453Z,1002.86
2022-12-15T07:46:47.802Z,1002.88
2022-12-15T07:47:47.744Z,1002.86
2022-12-15T07:48:50.750Z,1002.88
2022-12-15T07:49:47.716Z,1002.92
2022-12-15T07:50:47.704Z,1002.97
2022-12-15T07:51:47.690Z,1003.00
2022-12-15T07:52:47.668Z,1002.95
2022-12-15T07:53:47.690Z,1003.04
2022-12-15T07:54:47.634Z,1003.07
2022-12-15T07:56:06.324Z,1003.04
2022-12-15T07:56:50.540Z,1003.08
2022-12-15T07:57:47.593Z,1003.05
2022-12-15T07:58:47.580Z,1003.09
2022-12-15T07:59:47.565Z,1003.03
2022-12-15T08:00:49.060Z,1003.07
2022-12-15T08:01:47.765Z,1003.08
2022-12-15T08:02:47.713Z,1003.10
2022-12-15T08:03:47.587Z,1003.12
2022-12-15T08:04:48.106Z,1003.09
2022-12-15T08:05:47.483Z,1003.10
2022-12-15T08:06:47.471Z,1003.09
2022-12-15T08:07:54.671Z,1003.14
2022-12-15T08:09:51.460Z,1003.18
2022-12-15T08:10:51.418Z,1003.25
2022-12-15T08:12:55.427Z,1003.41
2022-12-15T08:14:04.510Z,1003.31
2022-12-15T08:15:59.424Z,1003.33
2022-12-15T08:16:59.390Z,1003.32
2022-12-15T08:18:52.221Z,1003.33
2022-12-15T08:19:55.748Z,1003.32
2022-12-15T08:21:56.236Z,1003.39
2022-12-15T08:22:56.177Z,1003.37
2022-12-15T08:25:00.176Z,1003.35
2022-12-15T08:26:00.116Z,1003.38
2022-12-15T08:27:53.037Z,1003.41
2022-12-15T08:28:52.989Z,1003.45
2022-12-15T08:29:53.163Z,1003.38
2022-12-15T08:30:52.981Z,1003.45
2022-12-15T08:31:53.175Z,1003.53
2022-12-15T08:32:52.932Z,1003.49
2022-12-15T08:33:52.921Z,1003.57
2022-12-15T08:34:52.900Z,1003.53
2022-12-15T08:35:57.215Z,1003.55
2022-12-15T08:36:52.875Z,1003.55
2022-12-15T08:37:52.882Z,1003.53
2022-12-15T08:38:52.860Z,1003.57
2022-12-15T08:39:52.853Z,1003.59
2022-12-15T08:40:52.840Z,1003.59
2022-12-15T08:41:52.826Z,1003.61
2022-12-15T08:42:52.790Z,1003.57
2022-12-15T08:43:52.788Z,1003.57
2022-12-15T08:44:52.764Z,1003.54
2022-12-15T08:45:52.813Z,1003.51
2022-12-15T08:46:52.747Z,1003.52
2022-12-15T08:47:52.740Z,1003.56
2022-12-15T08:48:52.704Z,1003.49
2022-12-15T08:49:52.702Z,1003.54
2022-12-15T08:50:52.675Z,1003.56
2022-12-15T08:51:52.674Z,1003.57
2022-12-15T08:53:21.417Z,1003.52
2022-12-15T08:53:52.653Z,1003.55
2022-12-15T08:54:52.645Z,1003.55
2022-12-15T08:55:52.614Z,1003.56
2022-12-15T08:56:52.603Z,1003.59
2022-12-15T08:57:52.595Z,1003.55
2022-12-15T08:58:52.578Z,1003.59
2022-12-15T08:59:52.558Z,1003.59
2022-12-15T09:00:52.623Z,1003.63
2022-12-15T09:01:52.705Z,1003.70
2022-12-15T09:02:52.626Z,1003.76
2022-12-15T09:03:52.686Z,1003.74
2022-12-15T09:04:52.548Z,1003.75
2022-12-15T09:05:52.494Z,1003.73
2022-12-15T09:06:52.471Z,1003.75
2022-12-15T09:07:52.461Z,1003.79
2022-12-15T09:08:52.468Z,1003.77
2022-12-15T09:09:52.452Z,1003.79
2022-12-15T09:10:52.761Z,1003.83
2022-12-15T09:11:52.437Z,1003.84
2022-12-15T09:12:52.424Z,1003.80
2022-12-15T09:13:52.416Z,1003.79
2022-12-15T09:14:52.393Z,1003.85
2022-12-15T09:16:09.849Z,1003.79
2022-12-15T09:16:52.431Z,1003.79
2022-12-15T09:17:52.358Z,1003.87
2022-12-15T09:18:52.373Z,1003.87
2022-12-15T09:19:52.364Z,1003.87
2022-12-15T09:20:52.334Z,1003.90
2022-12-15T09:21:52.325Z,1003.88
2022-12-15T09:22:52.341Z,1003.85
2022-12-15T09:23:52.375Z,1003.85
2022-12-15T09:24:52.291Z,1003.81
2022-12-15T09:25:52.312Z,1003.80
2022-12-15T09:26:52.270Z,1003.84
2022-12-15T09:27:52.270Z,1003.82
2022-12-15T09:28:52.251Z,1003.83
2022-12-15T09:29:52.247Z,1003.90
2022-12-15T09:30:52.318Z,1003.91
2022-12-15T09:31:52.263Z,1003.90
2022-12-15T09:32:53.055Z,1003.90
2022-12-15T09:33:52.228Z,1003.89
2022-12-15T09:34:52.187Z,1003.91
2022-12-15T09:35:52.189Z,1003.85
2022-12-15T09:36:52.169Z,1003.90
2022-12-15T09:37:52.173Z,1003.87
2022-12-15T09:38:52.158Z,1003.88
2022-12-15T09:39:52.141Z,1003.88
2022-12-15T09:40:52.205Z,1003.88
2022-12-15T09:41:52.116Z,1003.87
2022-12-15T09:43:04.906Z,1003.81
2022-12-15T09:43:52.499Z,1003.84
2022-12-15T09:44:52.096Z,1003.83
2022-12-15T09:45:52.139Z,1003.82
2022-12-15T09:46:52.067Z,1003.85
2022-12-15T09:47:52.086Z,1003.89
2022-12-15T09:48:52.045Z,1003.90
2022-12-15T09:49:52.042Z,1003.96
2022-12-15T09:50:52.025Z,1003.93
2022-12-15T09:51:52.042Z,1003.98
2022-12-15T09:52:52.007Z,1003.96
2022-12-15T09:53:55.177Z,1003.98
2022-12-15T09:54:52.012Z,1003.98
2022-12-15T09:55:51.990Z,1003.99
2022-12-15T09:56:51.980Z,1004.08
2022-12-15T09:57:51.969Z,1004.08
2022-12-15T09:58:51.986Z,1004.11
2022-12-15T09:59:51.985Z,1004.06
2022-12-15T10:00:52.611Z,1004.07
2022-12-15T10:01:51.990Z,1004.06
2022-12-15T10:02:52.092Z,1004.05
2022-12-15T10:03:52.051Z,1004.04
2022-12-15T10:04:51.895Z,1004.02
2022-12-15T10:06:14.714Z,1004.07
2022-12-15T10:06:51.880Z,1004.04
2022-12-15T10:07:51.882Z,1004.06
2022-12-15T10:08:51.947Z,1004.06
2022-12-15T10:09:51.854Z,1004.04
2022-12-15T10:10:51.841Z,1004.03
2022-12-15T10:11:51.852Z,1004.02
2022-12-15T10:13:01.157Z,1003.98
2022-12-15T10:13:51.820Z,1003.95
2022-12-15T10:14:51.810Z,1003.98
2022-12-15T10:15:51.839Z,1004.04
2022-12-15T10:16:51.799Z,1004.06
2022-12-15T10:17:51.817Z,1004.04
2022-12-15T10:18:54.781Z,1004.05
2022-12-15T10:19:51.761Z,1004.02
2022-12-15T10:20:51.742Z,1004.00
2022-12-15T10:21:51.735Z,1003.98
2022-12-15T10:22:51.717Z,1004.03
2022-12-15T10:23:51.859Z,1003.99
2022-12-15T10:25:51.708Z,1004.04
2022-12-15T10:26:51.685Z,1004.04
2022-12-15T10:27:51.686Z,1004.05
2022-12-15T10:28:51.655Z,1004.08
2022-12-15T10:29:51.665Z,1004.03
2022-12-15T10:30:51.679Z,1004.05
2022-12-15T10:31:51.624Z,1004.02
2022-12-15T10:32:51.766Z,1004.04
2022-12-15T10:33:51.597Z,1004.05
2022-12-15T10:34:51.652Z,1004.02
2022-12-15T10:35:51.572Z,1003.99
2022-12-15T10:36:51.566Z,1003.99
2022-12-15T10:37:51.561Z,1004.03
2022-12-15T10:38:51.546Z,1004.00
2022-12-15T10:39:51.535Z,1003.97
2022-12-15T10:40:51.544Z,1003.97
2022-12-15T10:41:51.503Z,1003.97
2022-12-15T10:42:51.510Z,1004.00
2022-12-15T10:43:51.489Z,1004.02
2022-12-15T10:44:51.471Z,1003.97
2022-12-15T10:45:51.520Z,1003.95
2022-12-15T10:46:51.453Z,1003.93
2022-12-15T10:47:51.443Z,1003.95
2022-12-15T10:48:51.407Z,1003.95
2022-12-15T10:49:51.408Z,1003.96
2022-12-15T10:50:51.404Z,1003.99
2022-12-15T10:51:51.378Z,1004.01
2022-12-15T10:52:51.388Z,1004.02
2022-12-15T10:53:51.373Z,1004.03
2022-12-15T10:54:51.366Z,1004.03
2022-12-15T10:55:51.351Z,1004.03
2022-12-15T10:57:01.027Z,1004.05
2022-12-15T10:58:27.047Z,1004.13
2022-12-15T10:58:51.324Z,1004.11
2022-12-15T10:59:51.294Z,1004.11
2022-12-15T11:00:51.315Z,1004.14
2022-12-15T11:01:51.467Z,1004.14
2022-12-15T11:02:51.344Z,1004.11
2022-12-15T11:03:51.398Z,1004.16
2022-12-15T11:04:51.225Z,1004.15
2022-12-15T11:05:51.208Z,1004.18
2022-12-15T11:06:51.198Z,1004.14
2022-12-15T11:07:51.182Z,1004.15
2022-12-15T11:08:51.217Z,1004.15
2022-12-15T11:09:51.167Z,1004.19
2022-12-15T11:10:51.158Z,1004.15
2022-12-15T11:11:51.150Z,1004.13
2022-12-15T11:12:51.146Z,1004.19
2022-12-15T11:13:51.106Z,1004.24
2022-12-15T11:14:51.437Z,1004.25
2022-12-15T11:15:51.251Z,1004.28
2022-12-15T11:16:51.102Z,1004.28
2022-12-15T11:17:51.057Z,1004.28
2022-12-15T11:18:51.047Z,1004.34
2022-12-15T11:19:54.009Z,1004.34
2022-12-15T11:20:51.033Z,1004.29
2022-12-15T11:21:51.049Z,1004.36
2022-12-15T11:22:50.989Z,1004.31
2022-12-15T11:23:51.002Z,1004.31
2022-12-15T11:24:50.971Z,1004.32
2022-12-15T11:25:51.246Z,1004.33
2022-12-15T11:26:50.969Z,1004.34
2022-12-15T11:27:50.998Z,1004.38
2022-12-15T11:28:50.926Z,1004.35
2022-12-15T11:29:50.904Z,1004.36
2022-12-15T11:30:50.956Z,1004.36
2022-12-15T11:31:50.904Z,1004.32
2022-12-15T11:32:50.880Z,1004.23
2022-12-15T11:33:50.858Z,1004.29
2022-12-15T11:34:50.862Z,1004.27
2022-12-15T11:35:50.828Z,1004.23
2022-12-15T11:36:50.843Z,1004.20
2022-12-15T11:37:50.904Z,1004.21
2022-12-15T11:38:51.008Z,1004.21
2022-12-15T11:39:50.804Z,1004.21
2022-12-15T11:40:50.778Z,1004.27
2022-12-15T11:41:50.893Z,1004.27
2022-12-15T11:42:50.813Z,1004.23
2022-12-15T11:43:50.855Z,1004.29
2022-12-15T11:44:50.718Z,1004.29
2022-12-15T11:45:50.707Z,1004.31
2022-12-15T11:46:50.705Z,1004.29
2022-12-15T11:47:50.995Z,1004.29
2022-12-15T11:48:50.675Z,1004.31
2022-12-15T11:49:50.660Z,1004.32
2022-12-15T11:50:51.058Z,1004.29
2022-12-15T11:51:50.644Z,1004.23
2022-12-15T11:52:50.723Z,1004.25
2022-12-15T11:53:50.649Z,1004.23
2022-12-15T11:54:50.622Z,1004.24
2022-12-15T11:55:50.589Z,1004.22
2022-12-15T11:56:50.621Z,1004.18
2022-12-15T11:57:50.616Z,1004.21
2022-12-15T11:58:50.567Z,1004.21
2022-12-15T11:59:50.541Z,1004.18
2022-12-15T12:00:50.528Z,1004.24
2022-12-15T12:01:57.102Z,1004.18
2022-12-15T12:02:50.567Z,1004.18
2022-12-15T12:03:50.525Z,1004.20
2022-12-15T12:04:50.838Z,1004.21
2022-12-15T12:05:50.471Z,1004.15
2022-12-15T12:06:50.442Z,1004.13
2022-12-15T12:07:50.451Z,1004.14
2022-12-15T12:09:50.434Z,1004.13
2022-12-15T12:10:50.461Z,1004.14
2022-12-15T12:11:50.439Z,1004.11
2022-12-15T12:12:50.605Z,1004.07
2022-12-15T12:13:50.452Z,1004.15
2022-12-15T12:14:50.741Z,1004.11
2022-12-15T12:15:50.357Z,1004.12
2022-12-15T12:16:50.342Z,1004.14
2022-12-15T12:17:50.324Z,1004.15
2022-12-15T12:18:50.662Z,1004.12
2022-12-15T12:19:50.782Z,1004.17
2022-12-15T12:20:50.394Z,1004.11